»·PEaware :: N22CM KSMX-KBFL

N22CM :: KSMX-KBFL

FLIGHT INFORMATION

Flight Status: Arrived
Operator: Privately registered:
United States
More flights under this callsign
Pilot: Anthony H. (22875)
Aircraft: CESSNA 172 SKYHAWK
(C172)
More flights by this aircraft type
Origin: KSMX Santa Maria Pub/Capt Hancock
United States
Destination: KBFL Meadows
United States
More flights between these airports :: More routes between these airports
Route: +
File this flight plan on PilotEdge
Remarks:
Altitude:
(Current/Filed)
0ft
Speed:
(Current/Filed)
0kts
Departed: 25-Jan-19 08:29 AM
Arrived: 25-Jan-19 09:19 AM
Distance/Time
Traveled:
76nm/0:50
Distance/Time
To Go:
Arrived

Flight Plot

Page will automatically refresh every two minutes.


Map Options




Map Legend


Flown Route
Filed Route
Departure Airport
Arrival Airport
Navaid (VOR, NDB)
Fix

Horizontal Profiles

Position Reports

Time Latitude Longitude Heading Altitude Ground
Speed
25-Jan-19 08:22 34.898776 -120.448386 134 265ft 0kts
25-Jan-19 08:23 34.898608 -120.448513 238 265ft 0kts
25-Jan-19 08:24 34.896802 -120.448186 136 265ft 20kts
25-Jan-19 08:25 34.893808 -120.445637 179 265ft 6kts
25-Jan-19 08:26 34.893761 -120.445637 178 265ft 0kts
25-Jan-19 08:28 34.892998 -120.445642 194 265ft 13kts
25-Jan-19 08:29 34.903880 -120.459940 314 987ft 79kts
25-Jan-19 08:30 34.918370 -120.449440 53 2171ft 75kts
25-Jan-19 08:31 34.926898 -120.427551 75 3279ft 70kts
25-Jan-19 08:32 34.932788 -120.404466 81 4273ft 73kts
25-Jan-19 08:33 34.935349 -120.375502 77 4917ft 102kts
25-Jan-19 08:34 34.943106 -120.340607 76 5429ft 108kts
25-Jan-19 08:35 34.952913 -120.306177 68 5934ft 107kts
25-Jan-19 08:36 34.964485 -120.273104 68 6437ft 104kts
25-Jan-19 08:37 34.975528 -120.240668 68 6939ft 102kts
25-Jan-19 08:38 34.985751 -120.208712 68 7437ft 100kts
25-Jan-19 08:39 34.995702 -120.177225 66 7930ft 99kts
25-Jan-19 08:40 35.005868 -120.143047 66 8000ft 121kts
25-Jan-19 08:41 35.017752 -120.102763 66 7694ft 128kts
25-Jan-19 08:42 35.029720 -120.061511 66 7483ft 126kts
25-Jan-19 08:43 35.041012 -120.021360 66 7500ft 124kts
25-Jan-19 08:44 35.052218 -119.981068 66 7510ft 126kts
25-Jan-19 08:45 35.063620 -119.940386 66 7499ft 126kts
25-Jan-19 08:46 35.075027 -119.899944 65 7488ft 126kts
25-Jan-19 08:47 35.086486 -119.859520 65 7477ft 126kts
25-Jan-19 08:48 35.098014 -119.819033 65 7454ft 126kts
25-Jan-19 08:48 35.107716 -119.785084 65 7457ft 126kts
25-Jan-19 08:50 35.122211 -119.737993 61 7467ft 126kts
25-Jan-19 08:51 35.137508 -119.699349 57 7475ft 126kts
25-Jan-19 08:52 35.153737 -119.661380 57 7483ft 126kts
25-Jan-19 08:52 35.167287 -119.629755 57 7490ft 126kts
25-Jan-19 08:53 35.183570 -119.591850 57 7498ft 126kts
25-Jan-19 08:54 35.199920 -119.553894 56 7505ft 126kts
25-Jan-19 08:55 35.217036 -119.514665 56 7311ft 129kts
25-Jan-19 08:56 35.233727 -119.476513 56 7316ft 126kts
25-Jan-19 08:57 35.250779 -119.437802 56 7114ft 131kts
25-Jan-19 08:58 35.268250 -119.398735 56 6820ft 131kts
25-Jan-19 08:59 35.285938 -119.359681 57 6525ft 131kts
25-Jan-19 09:00 35.300495 -119.318847 64 6183ft 121kts
25-Jan-19 09:01 35.311856 -119.284360 64 5664ft 98kts
25-Jan-19 09:02 35.320812 -119.256923 64 5048ft 79kts
25-Jan-19 09:03 35.328949 -119.232595 64 4446ft 76kts
25-Jan-19 09:04 35.337012 -119.209422 64 3812ft 74kts
25-Jan-19 09:05 35.344402 -119.183984 69 3023ft 82kts
25-Jan-19 09:06 35.351704 -119.158643 69 2490ft 67kts
25-Jan-19 09:07 35.357315 -119.138304 89 2271ft 64kts
25-Jan-19 09:08 35.351894 -119.120317 148 2245ft 74kts
25-Jan-19 09:09 35.356321 -119.103466 34 2316ft 68kts
25-Jan-19 09:10 35.372063 -119.090826 20 2366ft 68kts
25-Jan-19 09:11 35.378434 -119.072191 114 2248ft 74kts
25-Jan-19 09:12 35.376021 -119.046545 69 1745ft 72kts
25-Jan-19 09:13 35.386089 -119.027739 43 1258ft 63kts
25-Jan-19 09:14 35.400336 -119.019283 342 873ft 62kts
25-Jan-19 09:15 35.412895 -119.026937 301 800ft 49kts
25-Jan-19 09:16 35.421055 -119.040449 308 587ft 48kts
25-Jan-19 09:17 35.430156 -119.051725 313 506ft 46kts
25-Jan-19 09:18 35.436256 -119.057716 66 492ft 0kts
25-Jan-19 09:19 35.436262 -119.057699 65 492ft 3kts
25-Jan-19 09:20 35.435362 -119.053924 27 498ft 11kts
25-Jan-19 09:21 35.435686 -119.052748 173 502ft 0kts
25-Jan-19 09:22 35.435686 -119.052748 173 502ft 0kts
25-Jan-19 09:23 35.435686 -119.052748 173 502ft 0kts
25-Jan-19 09:24 35.435686 -119.052748 173 502ft 0kts
25-Jan-19 09:25 35.435686 -119.052748 173 502ft 0kts
25-Jan-19 09:26 35.435686 -119.052748 173 502ft 0kts
25-Jan-19 09:27 35.435686 -119.052748 173 502ft 0kts
25-Jan-19 09:28 35.435686 -119.052748 173 502ft 0kts
25-Jan-19 09:29 35.435686 -119.052748 173 502ft 0kts
25-Jan-19 09:30 35.435686 -119.052748 173 502ft 0kts
25-Jan-19 09:31 35.435686 -119.052748 173 502ft 0kts
25-Jan-19 09:32 35.435686 -119.052748 173 502ft 0kts

Navigation Log

Ident Type
Flight plan parsing failed, navigation log unavailable